createdAt,value
2019-05-19T00:02:08.460Z,20.00
2019-05-19T00:05:10.631Z,20.57
2019-05-19T00:08:13.355Z,22.97
2019-05-19T00:11:15.294Z,23.10
2019-05-19T00:14:17.222Z,25.80
2019-05-19T00:17:19.167Z,23.53
2019-05-19T00:20:21.095Z,22.47
2019-05-19T00:23:23.036Z,22.30
2019-05-19T00:26:24.996Z,23.63
2019-05-19T00:29:26.958Z,25.33
2019-05-19T00:32:30.178Z,24.40
2019-05-19T00:35:32.415Z,23.87
2019-05-19T00:38:34.272Z,21.77
2019-05-19T00:41:36.259Z,22.77
2019-05-19T00:44:38.175Z,21.07
2019-05-19T00:47:40.180Z,21.63
2019-05-19T00:50:42.191Z,21.83
2019-05-19T00:53:44.151Z,21.17
2019-05-19T00:56:46.788Z,21.20
2019-05-19T00:59:48.941Z,23.17
2019-05-19T01:02:50.904Z,21.77
2019-05-19T01:05:52.953Z,22.83
2019-05-19T01:08:54.896Z,23.73
2019-05-19T01:11:56.860Z,21.43
2019-05-19T01:14:58.910Z,23.60
2019-05-19T01:18:00.895Z,23.00
2019-05-19T01:21:02.834Z,22.00
2019-05-19T01:24:04.786Z,22.17
2019-05-19T01:27:06.689Z,20.93
2019-05-19T01:30:10.301Z,21.83
2019-05-19T01:33:12.223Z,23.93
2019-05-19T01:36:14.117Z,22.93
2019-05-19T01:39:16.120Z,23.17
2019-05-19T01:42:18.026Z,22.50
2019-05-19T01:45:20.070Z,24.67
2019-05-19T01:48:22.000Z,22.13
2019-05-19T01:51:23.947Z,23.57
2019-05-19T01:54:25.903Z,22.40
2019-05-19T01:57:27.923Z,23.00
2019-05-19T02:00:29.830Z,20.73
2019-05-19T02:03:31.821Z,22.83
2019-05-19T02:06:33.901Z,22.67
2019-05-19T02:09:35.866Z,20.77
2019-05-19T02:12:37.869Z,19.73
2019-05-19T02:15:39.788Z,18.97
2019-05-19T02:18:41.800Z,17.73
2019-05-19T02:21:43.767Z,21.40
2019-05-19T02:24:45.817Z,22.50
2019-05-19T02:27:47.718Z,21.57
2019-05-19T02:30:49.759Z,20.37
2019-05-19T02:33:51.747Z,18.57
2019-05-19T02:36:53.818Z,20.57
2019-05-19T02:39:55.830Z,21.00
2019-05-19T02:42:59.051Z,23.63
2019-05-19T02:46:02.746Z,22.47
2019-05-19T02:49:05.675Z,22.97
2019-05-19T02:52:10.665Z,23.03
2019-05-19T02:55:13.194Z,21.87
2019-05-19T02:58:15.946Z,25.47
2019-05-19T03:01:17.921Z,24.90
2019-05-19T03:04:19.868Z,24.20
2019-05-19T03:07:21.866Z,25.83
2019-05-19T03:10:23.875Z,23.60
2019-05-19T03:13:25.826Z,24.40
2019-05-19T03:16:27.692Z,24.93
2019-05-19T03:19:29.685Z,24.87
2019-05-19T03:22:31.712Z,27.07
2019-05-19T03:25:33.719Z,24.77
2019-05-19T03:28:35.732Z,24.47
2019-05-19T03:31:59.114Z,19.37
2019-05-19T03:35:01.192Z,19.43
2019-05-19T03:38:03.238Z,18.30
2019-05-19T03:41:05.193Z,17.57
2019-05-19T03:44:07.123Z,18.80
2019-05-19T03:47:09.028Z,17.03
2019-05-19T03:50:10.963Z,18.37
2019-05-19T03:53:14.471Z,18.20
2019-05-19T03:56:16.451Z,16.53
2019-05-19T03:59:18.367Z,15.10
2019-05-19T04:02:20.368Z,17.03
2019-05-19T04:05:22.360Z,16.10
2019-05-19T04:08:24.356Z,14.60
2019-05-19T04:11:26.311Z,17.43
2019-05-19T04:14:28.231Z,15.87
2019-05-19T04:17:30.107Z,15.20
2019-05-19T04:20:32.042Z,14.87
2019-05-19T04:23:33.950Z,16.13
2019-05-19T04:26:35.918Z,14.80
2019-05-19T04:29:39.496Z,16.10
2019-05-19T04:32:41.663Z,16.03
2019-05-19T04:35:43.600Z,17.30
2019-05-19T04:38:45.592Z,16.47
2019-05-19T04:41:47.570Z,16.87
2019-05-19T04:44:49.574Z,16.90
2019-05-19T04:47:51.555Z,18.27
2019-05-19T04:50:53.506Z,17.93
2019-05-19T04:53:55.461Z,18.37
2019-05-19T04:56:57.344Z,17.27
2019-05-19T04:59:59.273Z,17.20
2019-05-19T05:03:01.153Z,18.97
2019-05-19T05:06:03.155Z,17.32
2019-05-19T05:09:06.227Z,15.70
2019-05-19T05:12:08.223Z,16.82
2019-05-19T05:15:10.441Z,15.48
2019-05-19T05:18:12.348Z,15.88
2019-05-19T05:21:17.350Z,16.07
2019-05-19T05:24:19.308Z,17.90
2019-05-19T05:27:21.276Z,16.17
2019-05-19T05:30:23.192Z,15.45
2019-05-19T05:33:25.194Z,16.15
2019-05-19T05:36:27.841Z,15.90
2019-05-19T05:39:30.420Z,13.22
2019-05-19T05:42:32.337Z,14.18
2019-05-19T05:45:34.355Z,14.33
2019-05-19T05:48:36.272Z,15.90
2019-05-19T05:51:38.307Z,14.60
2019-05-19T05:54:40.260Z,15.55
2019-05-19T05:57:42.200Z,14.18
2019-05-19T06:00:44.111Z,13.68
2019-05-19T06:03:46.074Z,14.43
2019-05-19T06:06:48.070Z,15.35
2019-05-19T06:09:50.124Z,13.25
2019-05-19T06:12:52.027Z,13.65
2019-05-19T06:15:54.091Z,12.65
2019-05-19T06:18:56.880Z,12.10
2019-05-19T06:21:59.238Z,13.28
2019-05-19T06:25:01.235Z,12.98
2019-05-19T06:28:03.309Z,14.28
2019-05-19T06:31:05.302Z,14.28
2019-05-19T06:34:07.361Z,12.95
2019-05-19T06:37:09.284Z,11.60
2019-05-19T06:40:12.196Z,12.18
2019-05-19T06:43:14.185Z,13.22
2019-05-19T06:46:16.125Z,12.98
2019-05-19T06:49:18.169Z,13.83
2019-05-19T06:52:20.162Z,13.40
2019-05-19T06:55:22.271Z,12.88
2019-05-19T06:58:24.489Z,12.58
2019-05-19T07:01:26.504Z,13.03
2019-05-19T07:04:28.418Z,13.93
2019-05-19T07:07:30.386Z,12.73
2019-05-19T07:10:32.397Z,12.18
2019-05-19T07:13:34.287Z,13.35
2019-05-19T07:16:36.241Z,12.25
2019-05-19T07:19:38.166Z,13.45
2019-05-19T07:22:40.116Z,12.98
2019-05-19T07:25:42.452Z,14.68
2019-05-19T07:28:44.426Z,13.78
2019-05-19T07:31:46.557Z,13.68
2019-05-19T07:34:48.597Z,11.97
2019-05-19T07:37:50.559Z,11.93
2019-05-19T07:40:52.475Z,9.90
2019-05-19T07:43:54.391Z,11.12
2019-05-19T07:46:56.400Z,12.23
2019-05-19T07:49:58.356Z,10.20
2019-05-19T07:53:00.335Z,9.68
2019-05-19T07:56:02.312Z,10.35
2019-05-19T07:59:07.802Z,12.25
2019-05-19T08:02:08.205Z,10.35
2019-05-19T08:05:10.232Z,9.43
2019-05-19T08:08:12.200Z,7.95
2019-05-19T08:11:14.197Z,8.68
2019-05-19T08:14:16.193Z,9.10
2019-05-19T08:17:18.151Z,8.70
2019-05-19T08:20:20.338Z,8.23
2019-05-19T08:23:22.535Z,9.27
2019-05-19T08:26:24.586Z,8.73
2019-05-19T08:29:26.542Z,8.83
2019-05-19T08:32:28.449Z,9.73
2019-05-19T08:35:30.412Z,8.43
2019-05-19T08:38:32.329Z,7.93
2019-05-19T08:41:34.637Z,8.40
2019-05-19T08:44:36.634Z,8.27
2019-05-19T08:47:38.594Z,7.87
2019-05-19T08:50:40.540Z,8.23
2019-05-19T08:53:42.512Z,7.70
2019-05-19T08:56:44.529Z,9.10
2019-05-19T08:59:46.559Z,9.10
2019-05-19T09:02:48.543Z,8.77
2019-05-19T09:05:50.548Z,9.63
2019-05-19T09:08:52.597Z,9.10
2019-05-19T09:11:54.840Z,8.27
2019-05-19T09:14:56.799Z,8.47
2019-05-19T09:17:58.710Z,10.57
2019-05-19T09:21:01.891Z,8.70
2019-05-19T09:24:03.789Z,9.03
2019-05-19T09:27:05.811Z,9.53
2019-05-19T09:30:09.276Z,8.13
2019-05-19T09:33:11.298Z,8.00
2019-05-19T09:36:13.214Z,9.10
2019-05-19T09:39:15.208Z,9.43
2019-05-19T09:42:17.144Z,10.93
2019-05-19T09:45:19.143Z,9.13
2019-05-19T09:48:21.066Z,7.33
2019-05-19T09:51:23.030Z,8.90
2019-05-19T09:54:24.947Z,9.43
2019-05-19T09:57:26.957Z,9.47
2019-05-19T10:00:29.014Z,8.50
2019-05-19T10:03:30.996Z,7.97
2019-05-19T10:06:33.004Z,7.83
2019-05-19T10:09:56.311Z,7.43
2019-05-19T10:12:58.395Z,8.20
2019-05-19T10:16:00.437Z,7.97
2019-05-19T10:19:03.551Z,8.40
2019-05-19T10:22:05.463Z,8.20
2019-05-19T10:25:21.847Z,7.80
2019-05-19T10:28:13.507Z,7.53
2019-05-19T10:31:15.497Z,7.67
2019-05-19T10:34:17.864Z,6.97
2019-05-19T10:37:19.934Z,6.77
2019-05-19T10:40:21.895Z,6.87
2019-05-19T10:43:23.918Z,7.20
2019-05-19T10:46:26.150Z,7.40
2019-05-19T10:49:28.069Z,7.80
2019-05-19T10:52:30.052Z,7.70
2019-05-19T10:55:36.592Z,9.10
2019-05-19T10:58:35.991Z,6.60
2019-05-19T11:01:38.032Z,7.70
2019-05-19T11:04:39.958Z,7.17
2019-05-19T11:07:41.993Z,6.97
2019-05-19T11:10:43.986Z,7.23
2019-05-19T11:13:46.074Z,7.37
2019-05-19T11:16:48.084Z,7.00
2019-05-19T11:19:51.269Z,7.50
2019-05-19T11:22:53.187Z,7.30
2019-05-19T11:25:55.367Z,6.97
2019-05-19T11:28:57.358Z,7.40
2019-05-19T11:31:59.385Z,6.97
2019-05-19T11:35:01.417Z,7.10
2019-05-19T11:38:03.383Z,6.10
2019-05-19T11:41:05.387Z,6.90
2019-05-19T11:44:07.371Z,4.97
2019-05-19T11:47:09.637Z,6.23
2019-05-19T11:50:11.680Z,6.43
2019-05-19T11:53:14.771Z,5.73
2019-05-19T11:56:16.667Z,5.80
2019-05-19T11:59:18.675Z,5.03
2019-05-19T12:02:20.590Z,5.37
2019-05-19T12:05:22.640Z,5.47
2019-05-19T12:08:24.704Z,5.80
2019-05-19T12:11:26.681Z,5.87
2019-05-19T12:14:28.786Z,5.40
2019-05-19T12:17:30.716Z,5.97
2019-05-19T12:20:32.648Z,5.73
2019-05-19T12:23:34.588Z,6.37
2019-05-19T12:26:36.507Z,6.70
2019-05-19T12:29:38.463Z,6.60
2019-05-19T12:32:40.381Z,6.13
2019-05-19T12:35:42.344Z,5.80
2019-05-19T12:38:44.407Z,5.67
2019-05-19T12:41:46.394Z,6.67
2019-05-19T12:44:48.565Z,6.37
2019-05-19T12:47:51.307Z,7.17
2019-05-19T12:50:53.263Z,6.37
2019-05-19T12:53:55.258Z,6.23
2019-05-19T12:56:57.269Z,6.73
2019-05-19T12:59:59.304Z,6.80
2019-05-19T13:03:01.198Z,6.77
2019-05-19T13:06:03.183Z,6.73
2019-05-19T13:09:05.102Z,7.60
2019-05-19T13:12:07.186Z,7.33
2019-05-19T13:15:09.270Z,7.40
2019-05-19T13:18:11.231Z,6.67
2019-05-19T13:21:13.199Z,6.80
2019-05-19T13:24:15.164Z,7.00
2019-05-19T13:27:17.065Z,6.13
2019-05-19T13:30:19.011Z,7.03
2019-05-19T13:33:20.868Z,6.37
2019-05-19T13:36:22.798Z,6.73
2019-05-19T13:39:24.791Z,7.50
2019-05-19T13:42:26.777Z,6.40
2019-05-19T13:45:28.797Z,7.07
2019-05-19T13:48:30.804Z,7.53
2019-05-19T13:51:32.872Z,6.83
2019-05-19T13:54:34.803Z,6.50
2019-05-19T13:57:36.850Z,6.93
2019-05-19T14:00:38.806Z,7.07
2019-05-19T14:03:42.587Z,6.50
2019-05-19T14:06:46.384Z,7.20
2019-05-19T14:09:49.376Z,7.67
2019-05-19T14:12:51.426Z,6.77
2019-05-19T14:15:53.550Z,6.57
2019-05-19T14:18:55.518Z,7.13
2019-05-19T14:21:57.515Z,6.97
2019-05-19T14:24:59.471Z,7.37
2019-05-19T14:28:02.969Z,7.37
2019-05-19T14:31:05.090Z,7.83
2019-05-19T14:34:08.101Z,6.37
2019-05-19T14:37:10.512Z,6.80
2019-05-19T14:40:13.186Z,7.07
2019-05-19T14:43:17.033Z,5.50
2019-05-19T14:46:20.183Z,6.80
2019-05-19T14:49:22.161Z,7.43
2019-05-19T14:52:24.111Z,6.63
2019-05-19T14:55:26.124Z,6.57
2019-05-19T14:58:28.155Z,5.93
2019-05-19T15:01:30.058Z,6.23
2019-05-19T15:04:32.044Z,7.00
2019-05-19T15:07:34.007Z,8.03
2019-05-19T15:10:38.511Z,5.60
2019-05-19T15:13:40.487Z,6.53
2019-05-19T15:16:42.556Z,5.87
2019-05-19T15:19:46.797Z,5.50
2019-05-19T15:22:48.807Z,6.67
2019-05-19T15:25:50.795Z,5.53
2019-05-19T15:28:52.787Z,5.73
2019-05-19T15:31:55.196Z,5.60
2019-05-19T15:34:57.209Z,6.03
2019-05-19T15:37:59.169Z,5.10
2019-05-19T15:41:01.270Z,5.27
2019-05-19T15:44:04.737Z,5.67
2019-05-19T15:47:06.747Z,6.10
2019-05-19T15:50:10.476Z,6.23
2019-05-19T15:53:12.443Z,5.83
2019-05-19T15:56:14.472Z,5.57
2019-05-19T15:59:16.440Z,5.00
2019-05-19T16:02:18.397Z,5.27
2019-05-19T16:05:24.282Z,6.00
2019-05-19T16:08:26.271Z,6.33
2019-05-19T16:11:28.320Z,5.83
2019-05-19T16:14:30.280Z,5.83
2019-05-19T16:17:33.952Z,5.97
2019-05-19T16:20:35.988Z,7.17
2019-05-19T16:23:37.986Z,6.47
2019-05-19T16:26:39.952Z,7.77
2019-05-19T16:29:44.101Z,8.77
2019-05-19T16:32:46.083Z,6.87
2019-05-19T16:35:52.307Z,5.50
2019-05-19T16:38:54.812Z,5.03
2019-05-19T16:41:58.143Z,5.57
2019-05-19T16:45:00.138Z,5.70
2019-05-19T16:48:02.162Z,6.03
2019-05-19T16:51:04.158Z,5.43
2019-05-19T16:54:14.811Z,6.60
2019-05-19T16:57:16.736Z,4.13
2019-05-19T17:00:19.414Z,5.47
2019-05-19T17:03:22.660Z,6.80
2019-05-19T17:06:28.180Z,5.93
2019-05-19T17:09:30.186Z,6.50
2019-05-19T17:12:37.055Z,5.70
2019-05-19T17:15:41.255Z,4.77
2019-05-19T17:18:43.367Z,4.70
2019-05-19T17:21:47.193Z,5.33
2019-05-19T17:24:52.571Z,4.93
2019-05-19T17:27:59.500Z,5.07
2019-05-19T17:31:07.350Z,6.00
2019-05-19T17:34:09.548Z,6.77
2019-05-19T17:37:18.645Z,7.03
2019-05-19T17:40:20.825Z,6.83
2019-05-19T17:43:24.151Z,5.23
2019-05-19T17:46:26.395Z,5.27
2019-05-19T17:49:28.428Z,5.23
2019-05-19T17:52:33.865Z,6.50
2019-05-19T17:55:37.677Z,5.67
2019-05-19T17:58:40.021Z,6.27
2019-05-19T18:01:42.137Z,5.70
2019-05-19T18:04:44.063Z,7.00
2019-05-19T18:07:46.029Z,5.60
2019-05-19T18:10:49.161Z,6.07
2019-05-19T18:13:52.955Z,6.50
2019-05-19T18:16:56.620Z,5.57
2019-05-19T18:19:58.934Z,5.40
2019-05-19T18:23:01.303Z,5.90
2019-05-19T18:26:07.328Z,5.73
2019-05-19T18:29:10.030Z,6.50
2019-05-19T18:32:14.745Z,5.33
2019-05-19T18:35:17.149Z,6.40
2019-05-19T18:38:20.566Z,6.93
2019-05-19T18:41:22.838Z,6.53
2019-05-19T18:44:24.779Z,6.53
2019-05-19T18:47:26.857Z,7.40
2019-05-19T18:50:28.811Z,5.77
2019-05-19T18:53:30.978Z,6.40
2019-05-19T18:56:33.036Z,6.47
2019-05-19T18:59:46.523Z,6.23
2019-05-19T19:02:40.667Z,7.43
2019-05-19T19:05:42.980Z,6.40
2019-05-19T19:08:45.938Z,8.80
2019-05-19T19:11:47.925Z,8.80
2019-05-19T19:14:49.863Z,8.57
2019-05-19T19:17:52.868Z,9.10
2019-05-19T19:20:57.523Z,8.37
2019-05-19T19:23:59.661Z,8.20
2019-05-19T19:27:03.619Z,8.80
2019-05-19T19:30:07.206Z,7.73
2019-05-19T19:33:09.345Z,7.47
2019-05-19T19:36:13.111Z,7.13
2019-05-19T19:39:22.631Z,7.10
2019-05-19T19:42:24.598Z,6.57
2019-05-19T19:45:26.682Z,7.60
2019-05-19T19:48:29.648Z,7.47
2019-05-19T19:51:31.626Z,7.33
2019-05-19T19:54:35.386Z,6.90
2019-05-19T19:57:39.403Z,7.33
2019-05-19T20:00:46.122Z,7.57
2019-05-19T20:03:49.852Z,7.17
2019-05-19T20:06:51.730Z,7.20
2019-05-19T20:09:55.976Z,7.97
2019-05-19T20:12:59.337Z,8.30
2019-05-19T20:16:02.074Z,8.33
2019-05-19T20:19:05.994Z,8.63
2019-05-19T20:22:10.214Z,8.37
2019-05-19T20:25:12.381Z,7.87
2019-05-19T20:28:14.398Z,8.73
2019-05-19T20:31:16.389Z,9.70
2019-05-19T20:34:18.255Z,9.40
2019-05-19T20:37:21.996Z,9.30
2019-05-19T20:40:24.309Z,9.70
2019-05-19T20:43:26.351Z,11.13
2019-05-19T20:46:28.391Z,11.97
2019-05-19T20:49:30.379Z,12.17
2019-05-19T20:52:32.865Z,11.63
2019-05-19T20:55:34.817Z,12.57
2019-05-19T20:58:36.728Z,12.90
2019-05-19T21:01:38.754Z,12.57
2019-05-19T21:04:40.633Z,13.57
2019-05-19T21:07:42.701Z,13.33
2019-05-19T21:10:44.745Z,13.87
2019-05-19T21:13:46.675Z,13.60
2019-05-19T21:16:50.602Z,12.33
2019-05-19T21:19:53.391Z,13.80
2019-05-19T21:22:55.359Z,12.43
2019-05-19T21:25:57.752Z,12.60
2019-05-19T21:28:59.862Z,13.07
2019-05-19T21:32:01.837Z,12.70
2019-05-19T21:35:05.048Z,14.03
2019-05-19T21:38:07.082Z,13.80
2019-05-19T21:41:09.118Z,14.33
2019-05-19T21:44:11.126Z,14.27
2019-05-19T21:47:13.042Z,14.53
2019-05-19T21:50:15.071Z,14.47
2019-05-19T21:53:16.986Z,15.23
2019-05-19T21:56:18.944Z,16.70
2019-05-19T21:59:20.868Z,16.67
2019-05-19T22:02:22.834Z,17.70
2019-05-19T22:05:24.831Z,16.67
2019-05-19T22:08:26.827Z,18.00
2019-05-19T22:11:28.767Z,21.33
2019-05-19T22:14:30.752Z,20.93
2019-05-19T22:17:32.659Z,19.37
2019-05-19T22:20:34.633Z,20.80
2019-05-19T22:23:36.719Z,20.73
2019-05-19T22:26:38.669Z,22.53
2019-05-19T22:29:40.664Z,21.83
2019-05-19T22:32:42.555Z,21.93
2019-05-19T22:35:44.501Z,21.67
2019-05-19T22:38:46.401Z,20.00
2019-05-19T22:41:48.391Z,23.30
2019-05-19T22:44:50.329Z,22.83
2019-05-19T22:47:52.358Z,24.70
2019-05-19T22:50:54.308Z,25.80
2019-05-19T22:53:56.262Z,25.37
2019-05-19T22:56:58.155Z,27.27
2019-05-19T23:00:00.062Z,25.33
2019-05-19T23:03:02.043Z,25.43
2019-05-19T23:06:03.950Z,27.67
2019-05-19T23:09:05.997Z,27.50
2019-05-19T23:12:08.062Z,26.63
2019-05-19T23:15:10.185Z,26.33
2019-05-19T23:18:12.171Z,25.87
2019-05-19T23:21:14.067Z,26.90
2019-05-19T23:24:16.148Z,27.90
2019-05-19T23:27:18.127Z,26.10
2019-05-19T23:30:20.152Z,28.37
2019-05-19T23:33:22.049Z,29.77
2019-05-19T23:36:24.018Z,28.50
2019-05-19T23:39:25.929Z,31.13
2019-05-19T23:42:27.819Z,29.50
2019-05-19T23:45:29.890Z,30.90
2019-05-19T23:48:31.873Z,28.03
2019-05-19T23:51:33.929Z,30.13
2019-05-19T23:54:35.861Z,29.07
2019-05-19T23:57:37.847Z,30.10
